createdAt,value
2019-06-20T00:00:37.105Z,10.03
2019-06-20T00:03:06.659Z,9.80
2019-06-20T00:05:36.140Z,10.03
2019-06-20T00:08:05.583Z,11.10
2019-06-20T00:10:35.074Z,9.63
2019-06-20T00:13:04.787Z,10.57
2019-06-20T00:15:34.539Z,10.57
2019-06-20T00:18:04.007Z,10.57
2019-06-20T00:20:33.482Z,10.13
2019-06-20T00:23:04.629Z,9.93
2019-06-20T00:25:34.112Z,11.10
2019-06-20T00:28:03.584Z,10.63
2019-06-20T00:30:33.041Z,9.90
2019-06-20T00:33:02.525Z,10.43
2019-06-20T00:35:31.997Z,9.90
2019-06-20T00:38:01.498Z,9.60
2019-06-20T00:40:30.967Z,10.60
2019-06-20T00:43:13.420Z,9.73
2019-06-20T00:45:31.623Z,10.40
2019-06-20T00:48:01.098Z,10.30
2019-06-20T00:50:31.134Z,10.37
2019-06-20T00:53:00.640Z,9.83
2019-06-20T00:55:30.395Z,9.73
2019-06-20T00:57:59.859Z,9.77
2019-06-20T01:00:29.349Z,10.83
2019-06-20T01:02:58.861Z,9.33
2019-06-20T01:05:28.290Z,11.10
2019-06-20T01:07:57.752Z,9.80
2019-06-20T01:10:27.240Z,10.50
2019-06-20T01:12:56.727Z,11.73
2019-06-20T01:15:26.309Z,10.67
2019-06-20T01:17:55.797Z,11.40
2019-06-20T01:20:25.319Z,10.03
2019-06-20T01:22:54.803Z,10.20
2019-06-20T01:25:37.118Z,10.13
2019-06-20T01:28:07.210Z,10.87
2019-06-20T01:30:36.716Z,10.63
2019-06-20T01:33:06.320Z,10.13
2019-06-20T01:35:35.792Z,10.37
2019-06-20T01:38:05.541Z,11.30
2019-06-20T01:40:35.023Z,11.20
2019-06-20T01:43:04.571Z,10.60
2019-06-20T01:45:34.189Z,11.10
2019-06-20T01:48:03.886Z,10.70
2019-06-20T01:50:33.329Z,9.97
2019-06-20T01:53:02.810Z,10.07
2019-06-20T01:55:32.319Z,10.43
2019-06-20T01:58:01.867Z,9.63
2019-06-20T02:00:43.756Z,10.10
2019-06-20T02:03:13.994Z,10.83
2019-06-20T02:05:43.810Z,9.90
2019-06-20T02:08:13.484Z,11.03
2019-06-20T02:10:42.951Z,9.87
2019-06-20T02:13:12.388Z,10.60
2019-06-20T02:15:41.984Z,9.63
2019-06-20T02:18:11.625Z,10.07
2019-06-20T02:20:48.111Z,10.97
2019-06-20T02:23:17.591Z,10.20
2019-06-20T02:25:47.163Z,11.50
2019-06-20T02:28:16.649Z,10.80
2019-06-20T02:30:46.132Z,10.53
2019-06-20T02:33:15.603Z,11.00
2019-06-20T02:35:45.056Z,10.70
2019-06-20T02:38:14.570Z,11.43
2019-06-20T02:40:44.177Z,12.07
2019-06-20T02:43:13.623Z,11.40
2019-06-20T02:45:43.113Z,12.27
2019-06-20T02:48:12.574Z,11.50
2019-06-20T02:50:42.073Z,12.73
2019-06-20T02:53:11.564Z,14.13
2019-06-20T02:55:41.039Z,12.40
2019-06-20T02:58:10.478Z,12.23
2019-06-20T03:00:51.189Z,13.53
2019-06-20T03:03:20.659Z,13.43
2019-06-20T03:05:50.131Z,13.67
2019-06-20T03:08:19.666Z,15.00
2019-06-20T03:10:49.147Z,13.70
2019-06-20T03:13:18.676Z,13.27
2019-06-20T03:15:50.104Z,15.03
2019-06-20T03:18:19.425Z,13.50
2019-06-20T03:20:48.913Z,14.47
2019-06-20T03:23:18.381Z,13.73
2019-06-20T03:25:47.839Z,14.07
2019-06-20T03:28:17.289Z,15.43
2019-06-20T03:30:46.774Z,13.97
2019-06-20T03:33:16.261Z,12.63
2019-06-20T03:35:45.749Z,13.37
2019-06-20T03:38:15.223Z,14.17
2019-06-20T03:40:44.697Z,11.60
2019-06-20T03:43:14.156Z,10.23
2019-06-20T03:45:43.671Z,11.50
2019-06-20T03:48:13.141Z,9.90
2019-06-20T03:50:42.727Z,10.83
2019-06-20T03:53:12.212Z,10.33
2019-06-20T03:55:41.782Z,12.57
2019-06-20T03:58:11.284Z,13.27
2019-06-20T04:00:40.755Z,15.80
2019-06-20T04:03:10.247Z,15.50
2019-06-20T04:05:39.746Z,16.77
2019-06-20T04:08:09.365Z,15.10
2019-06-20T04:10:38.852Z,13.23
2019-06-20T04:13:08.417Z,13.73
2019-06-20T04:15:37.897Z,13.07
2019-06-20T04:18:07.363Z,12.17
2019-06-20T04:20:36.846Z,12.80
2019-06-20T04:23:07.230Z,15.70
2019-06-20T04:25:36.789Z,16.80
2019-06-20T04:28:06.407Z,16.47
2019-06-20T04:30:35.894Z,18.80
2019-06-20T04:33:05.410Z,18.03
2019-06-20T04:35:34.901Z,18.37
2019-06-20T04:38:04.364Z,19.90
2019-06-20T04:40:33.955Z,19.33
2019-06-20T04:43:03.565Z,20.43
2019-06-20T04:45:48.054Z,19.60
2019-06-20T04:48:17.515Z,20.20
2019-06-20T04:50:46.995Z,19.87
2019-06-20T04:53:16.447Z,17.00
2019-06-20T04:55:45.925Z,17.67
2019-06-20T04:58:15.399Z,16.73
2019-06-20T05:00:44.866Z,17.53
2019-06-20T05:03:14.381Z,17.37
2019-06-20T05:05:43.852Z,16.20
2019-06-20T05:08:13.416Z,16.80
2019-06-20T05:10:42.950Z,16.50
2019-06-20T05:13:12.364Z,15.47
2019-06-20T05:15:51.926Z,16.80
2019-06-20T05:18:13.193Z,16.47
2019-06-20T05:20:42.704Z,17.97
2019-06-20T05:23:12.198Z,19.47
2019-06-20T05:25:41.681Z,17.80
2019-06-20T05:28:46.440Z,18.73
2019-06-20T05:31:07.162Z,19.40
2019-06-20T05:33:36.650Z,18.97
2019-06-20T05:36:06.169Z,18.47
2019-06-20T05:38:35.623Z,20.67
2019-06-20T05:41:05.206Z,17.80
2019-06-20T05:43:34.737Z,17.73
2019-06-20T05:46:09.778Z,18.23
2019-06-20T05:48:35.626Z,19.77
2019-06-20T05:51:05.168Z,18.03
2019-06-20T05:53:34.619Z,19.57
2019-06-20T05:56:04.081Z,19.83
2019-06-20T05:58:33.617Z,18.70
2019-06-20T06:01:03.220Z,20.27
2019-06-20T06:03:33.567Z,18.43
2019-06-20T06:06:03.377Z,19.00
2019-06-20T06:08:32.858Z,18.57
2019-06-20T06:11:02.314Z,21.27
2019-06-20T06:13:31.890Z,18.90
2019-06-20T06:16:01.388Z,19.47
2019-06-20T06:18:30.929Z,20.60
2019-06-20T06:21:00.388Z,20.10
2019-06-20T06:23:29.881Z,20.00
2019-06-20T06:25:59.569Z,19.20
2019-06-20T06:28:29.028Z,19.43
2019-06-20T06:30:58.508Z,18.50
2019-06-20T06:33:28.020Z,20.37
2019-06-20T06:35:57.508Z,20.50
2019-06-20T06:38:26.947Z,20.03
2019-06-20T06:40:56.431Z,21.60
2019-06-20T06:43:25.916Z,21.23
2019-06-20T06:45:55.395Z,20.43
2019-06-20T06:48:24.874Z,21.57
2019-06-20T06:50:54.392Z,21.03
2019-06-20T06:53:23.881Z,19.30
2019-06-20T06:55:53.359Z,18.97
2019-06-20T06:58:22.927Z,20.50
2019-06-20T07:00:52.506Z,20.97
2019-06-20T07:03:21.994Z,19.87
2019-06-20T07:05:51.525Z,20.67
2019-06-20T07:08:21.019Z,17.97
2019-06-20T07:10:50.509Z,20.10
2019-06-20T07:13:20.040Z,22.77
2019-06-20T07:15:49.501Z,19.87
2019-06-20T07:18:18.958Z,19.37
2019-06-20T07:20:48.410Z,18.37
2019-06-20T07:23:17.911Z,18.23
2019-06-20T07:25:47.375Z,21.17
2019-06-20T07:28:16.864Z,18.93
2019-06-20T07:30:46.357Z,16.70
2019-06-20T07:33:15.843Z,16.57
2019-06-20T07:35:45.372Z,16.73
2019-06-20T07:38:14.900Z,21.67
2019-06-20T07:40:44.466Z,19.57
2019-06-20T07:43:13.972Z,19.97
2019-06-20T07:45:43.413Z,18.90
2019-06-20T07:48:12.930Z,19.57
2019-06-20T07:50:42.453Z,22.00
2019-06-20T07:53:11.927Z,19.97
2019-06-20T07:55:41.387Z,18.60
2019-06-20T07:58:10.894Z,19.67
2019-06-20T08:00:40.359Z,18.63
2019-06-20T08:03:09.832Z,17.30
2019-06-20T08:05:39.350Z,17.53
2019-06-20T08:08:08.890Z,17.97
2019-06-20T08:10:38.390Z,17.40
2019-06-20T08:13:07.851Z,18.10
2019-06-20T08:15:37.391Z,15.90
2019-06-20T08:18:06.887Z,15.60
2019-06-20T08:20:36.384Z,17.50
2019-06-20T08:23:05.972Z,16.07
2019-06-20T08:25:35.551Z,14.70
2019-06-20T08:28:05.052Z,15.67
2019-06-20T08:30:35.872Z,11.00
2019-06-20T08:33:11.749Z,13.63
2019-06-20T08:35:37.630Z,13.63
2019-06-20T08:38:07.571Z,13.83
2019-06-20T08:40:40.924Z,12.90
2019-06-20T08:43:10.686Z,14.10
2019-06-20T08:45:42.238Z,13.20
2019-06-20T08:48:11.684Z,15.93
2019-06-20T08:50:41.299Z,16.77
2019-06-20T08:53:10.824Z,14.30
2019-06-20T08:55:40.439Z,12.70
2019-06-20T08:58:10.121Z,14.50
2019-06-20T09:00:41.140Z,14.30
2019-06-20T09:03:10.630Z,14.13
2019-06-20T09:05:40.156Z,14.70
2019-06-20T09:08:11.481Z,13.10
2019-06-20T09:10:41.871Z,12.30
2019-06-20T09:13:12.920Z,12.83
2019-06-20T09:15:43.319Z,14.97
2019-06-20T09:18:13.251Z,11.37
2019-06-20T09:20:43.447Z,11.67
2019-06-20T09:23:12.936Z,8.40
2019-06-20T09:25:42.937Z,11.13
2019-06-20T09:28:12.408Z,10.13
2019-06-20T09:30:41.874Z,10.50
2019-06-20T09:33:11.328Z,10.57
2019-06-20T09:35:40.821Z,14.43
2019-06-20T09:38:10.302Z,10.80
2019-06-20T09:40:39.773Z,12.30
2019-06-20T09:43:09.318Z,8.97
2019-06-20T09:45:39.037Z,10.63
2019-06-20T09:48:08.534Z,9.07
2019-06-20T09:50:38.078Z,8.40
2019-06-20T09:53:07.653Z,9.03
2019-06-20T09:55:37.179Z,8.77
2019-06-20T09:58:06.769Z,10.20
2019-06-20T10:00:36.906Z,9.67
2019-06-20T10:03:06.800Z,8.87
2019-06-20T10:05:36.881Z,10.37
2019-06-20T10:08:07.104Z,10.73
2019-06-20T10:10:37.075Z,10.00
2019-06-20T10:13:06.736Z,9.77
2019-06-20T10:15:39.124Z,9.43
2019-06-20T10:18:08.894Z,10.10
2019-06-20T10:20:39.125Z,11.53
2019-06-20T10:23:08.924Z,9.80
2019-06-20T10:25:38.922Z,10.30
2019-06-20T10:28:08.735Z,8.90
2019-06-20T10:30:38.250Z,8.30
2019-06-20T10:33:07.846Z,8.77
2019-06-20T10:35:37.727Z,8.73
2019-06-20T10:38:07.237Z,8.43
2019-06-20T10:40:36.717Z,8.43
2019-06-20T10:43:06.198Z,8.67
2019-06-20T10:45:36.202Z,8.50
2019-06-20T10:48:05.931Z,10.13
2019-06-20T10:50:35.385Z,9.13
2019-06-20T10:53:04.885Z,11.00
2019-06-20T10:55:34.408Z,9.77
2019-06-20T10:58:03.869Z,10.63
2019-06-20T11:00:34.458Z,9.57
2019-06-20T11:03:03.995Z,9.30
2019-06-20T11:05:33.498Z,8.67
2019-06-20T11:08:02.990Z,8.90
2019-06-20T11:10:32.960Z,8.50
2019-06-20T11:13:02.436Z,9.17
2019-06-20T11:15:32.137Z,8.20
2019-06-20T11:18:01.655Z,8.07
2019-06-20T11:20:31.296Z,8.47
2019-06-20T11:23:00.745Z,8.80
2019-06-20T11:25:30.206Z,8.60
2019-06-20T11:27:59.640Z,8.50
2019-06-20T11:30:44.836Z,8.40
2019-06-20T11:33:02.521Z,8.40
2019-06-20T11:35:32.328Z,8.77
2019-06-20T11:38:01.846Z,8.37
2019-06-20T11:40:31.312Z,8.87
2019-06-20T11:43:00.814Z,9.10
2019-06-20T11:45:30.309Z,8.40
2019-06-20T11:47:59.790Z,9.20
2019-06-20T11:50:29.235Z,8.40
2019-06-20T11:52:58.720Z,8.37
2019-06-20T11:55:28.199Z,8.83
2019-06-20T11:57:57.621Z,8.30
2019-06-20T12:00:28.327Z,7.83
2019-06-20T12:02:57.841Z,8.53
2019-06-20T12:05:27.328Z,7.03
2019-06-20T12:07:56.848Z,7.17
2019-06-20T12:10:26.480Z,6.73
2019-06-20T12:12:55.943Z,6.43
2019-06-20T12:15:25.388Z,7.00
2019-06-20T12:17:54.855Z,6.67
2019-06-20T12:20:24.628Z,7.13
2019-06-20T12:22:54.089Z,7.40
2019-06-20T12:25:25.474Z,7.50
2019-06-20T12:27:54.922Z,8.40
2019-06-20T12:30:25.148Z,9.27
2019-06-20T12:32:54.719Z,10.17
2019-06-20T12:35:24.242Z,10.63
2019-06-20T12:37:53.685Z,9.97
2019-06-20T12:40:23.241Z,9.67
2019-06-20T12:42:52.749Z,10.43
2019-06-20T12:45:22.824Z,10.23
2019-06-20T12:47:52.391Z,9.37
2019-06-20T12:50:22.042Z,10.63
2019-06-20T12:52:51.503Z,10.33
2019-06-20T12:55:20.980Z,10.33
2019-06-20T12:57:50.473Z,9.40
2019-06-20T13:00:20.725Z,9.10
2019-06-20T13:02:50.176Z,8.87
2019-06-20T13:05:21.267Z,9.37
2019-06-20T13:07:51.444Z,8.83
2019-06-20T13:10:22.134Z,8.00
2019-06-20T13:12:51.704Z,6.90
2019-06-20T13:15:22.104Z,7.00
2019-06-20T13:17:51.599Z,7.00
2019-06-20T13:20:21.291Z,6.97
2019-06-20T13:22:51.500Z,7.13
2019-06-20T13:25:20.960Z,7.20
2019-06-20T13:27:50.791Z,7.33
2019-06-20T13:30:20.644Z,8.47
2019-06-20T13:32:50.140Z,9.10
2019-06-20T13:35:20.283Z,9.20
2019-06-20T13:37:50.105Z,10.27
2019-06-20T13:40:20.214Z,10.77
2019-06-20T13:42:50.344Z,8.87
2019-06-20T13:45:22.748Z,9.33
2019-06-20T13:47:52.441Z,10.13
2019-06-20T13:50:22.634Z,8.67
2019-06-20T13:52:52.211Z,9.47
2019-06-20T13:55:21.707Z,8.97
2019-06-20T13:57:51.310Z,9.43
2019-06-20T14:00:22.812Z,9.13
2019-06-20T14:02:52.273Z,7.90
2019-06-20T14:05:21.790Z,6.60
2019-06-20T14:07:53.884Z,7.27
2019-06-20T14:10:23.370Z,6.97
2019-06-20T14:12:53.010Z,7.03
2019-06-20T14:15:22.580Z,7.30
2019-06-20T14:17:53.709Z,8.00
2019-06-20T14:20:23.953Z,9.37
2019-06-20T14:22:54.607Z,8.03
2019-06-20T14:25:24.667Z,7.93
2019-06-20T14:27:54.244Z,8.40
2019-06-20T14:30:24.135Z,7.70
2019-06-20T14:32:54.134Z,8.90
2019-06-20T14:35:23.913Z,8.40
2019-06-20T14:37:55.366Z,9.03
2019-06-20T14:40:24.751Z,9.93
2019-06-20T14:42:54.471Z,10.13
2019-06-20T14:45:24.021Z,8.43
2019-06-20T14:47:53.572Z,8.17
2019-06-20T14:50:23.910Z,7.97
2019-06-20T14:52:54.164Z,7.67
2019-06-20T14:55:23.923Z,6.40
2019-06-20T14:57:54.706Z,6.30
2019-06-20T15:00:25.213Z,7.43
2019-06-20T15:02:58.323Z,7.93
2019-06-20T15:05:25.911Z,7.30
2019-06-20T15:07:56.043Z,6.80
2019-06-20T15:10:25.656Z,7.03
2019-06-20T15:12:55.941Z,7.70
2019-06-20T15:15:25.708Z,6.70
2019-06-20T15:17:57.466Z,6.67
2019-06-20T15:20:26.433Z,6.97
2019-06-20T15:22:56.601Z,6.67
2019-06-20T15:25:26.427Z,6.50
2019-06-20T15:27:57.361Z,7.60
2019-06-20T15:30:27.038Z,7.40
2019-06-20T15:33:07.481Z,7.10
2019-06-20T15:35:27.838Z,7.50
2019-06-20T15:37:57.866Z,7.20
2019-06-20T15:40:27.599Z,7.40
2019-06-20T15:42:58.765Z,8.93
2019-06-20T15:45:28.981Z,7.30
2019-06-20T15:47:58.598Z,7.50
2019-06-20T15:50:28.084Z,7.40
2019-06-20T15:52:57.521Z,6.87
2019-06-20T15:55:27.010Z,5.97
2019-06-20T15:57:56.646Z,6.30
2019-06-20T16:00:27.017Z,5.70
2019-06-20T16:03:08.878Z,5.70
2019-06-20T16:05:27.784Z,6.13
2019-06-20T16:07:57.275Z,6.43
2019-06-20T16:10:26.767Z,5.93
2019-06-20T16:12:56.313Z,5.37
2019-06-20T16:15:25.802Z,7.07
2019-06-20T16:17:55.302Z,6.97
2019-06-20T16:20:25.466Z,8.10
2019-06-20T16:22:54.963Z,6.00
2019-06-20T16:25:24.462Z,6.80
2019-06-20T16:27:53.935Z,7.00
2019-06-20T16:30:23.537Z,7.47
2019-06-20T16:32:53.061Z,7.33
2019-06-20T16:35:22.480Z,8.53
2019-06-20T16:37:51.983Z,6.53
2019-06-20T16:40:31.399Z,5.57
2019-06-20T16:43:00.850Z,6.00
2019-06-20T16:45:30.760Z,8.63
2019-06-20T16:48:00.234Z,12.60
2019-06-20T16:50:29.683Z,6.63
2019-06-20T16:53:01.292Z,9.80
2019-06-20T16:55:30.434Z,6.13
2019-06-20T16:57:59.938Z,5.70
2019-06-20T17:00:33.076Z,6.20
2019-06-20T17:03:02.537Z,6.43
2019-06-20T17:05:32.094Z,11.63
2019-06-20T17:08:01.540Z,19.63
2019-06-20T17:10:31.018Z,8.67
2019-06-20T17:13:00.548Z,8.37
2019-06-20T17:15:30.077Z,8.27
2019-06-20T17:17:59.544Z,7.10
2019-06-20T17:20:29.018Z,7.00
2019-06-20T17:22:58.508Z,7.00
2019-06-20T17:25:28.087Z,6.97
2019-06-20T17:27:57.890Z,7.83
2019-06-20T17:30:28.262Z,9.77
2019-06-20T17:32:57.734Z,7.20
2019-06-20T17:35:27.314Z,7.40
2019-06-20T17:37:57.107Z,7.20
2019-06-20T17:40:28.383Z,6.97
2019-06-20T17:42:57.854Z,6.90
2019-06-20T17:45:27.857Z,7.23
2019-06-20T17:47:57.350Z,8.03
2019-06-20T17:50:27.192Z,8.90
2019-06-20T17:52:56.709Z,7.80
2019-06-20T17:55:26.226Z,7.47
2019-06-20T17:57:55.715Z,8.10
2019-06-20T18:00:25.973Z,7.90
2019-06-20T18:02:55.749Z,8.07
2019-06-20T18:05:25.220Z,8.60
2019-06-20T18:07:54.726Z,8.27
2019-06-20T18:10:24.394Z,8.43
2019-06-20T18:12:53.866Z,8.03
2019-06-20T18:15:23.454Z,7.90
2019-06-20T18:17:52.960Z,10.27
2019-06-20T18:20:22.624Z,10.07
2019-06-20T18:22:52.159Z,10.17
2019-06-20T18:25:21.733Z,9.13
2019-06-20T18:27:51.201Z,9.53
2019-06-20T18:30:25.492Z,8.43
2019-06-20T18:32:54.974Z,9.10
2019-06-20T18:35:24.638Z,8.30
2019-06-20T18:37:54.137Z,7.93
2019-06-20T18:40:23.581Z,7.67
2019-06-20T18:42:53.088Z,7.83
2019-06-20T18:45:22.633Z,9.17
2019-06-20T18:47:52.154Z,8.13
2019-06-20T18:50:21.588Z,8.53
2019-06-20T18:52:52.677Z,8.53
2019-06-20T18:55:22.623Z,9.07
2019-06-20T18:57:52.373Z,10.60
2019-06-20T19:00:34.260Z,10.47
2019-06-20T19:02:54.154Z,10.23
2019-06-20T19:05:23.616Z,11.03
2019-06-20T19:07:53.161Z,9.00
2019-06-20T19:10:23.432Z,9.90
2019-06-20T19:12:52.947Z,10.47
2019-06-20T19:15:23.907Z,10.83
2019-06-20T19:17:53.545Z,10.87
2019-06-20T19:20:23.273Z,9.20
2019-06-20T19:22:52.809Z,10.17
2019-06-20T19:25:22.279Z,10.00
2019-06-20T19:27:51.797Z,10.07
2019-06-20T19:30:26.071Z,10.47
2019-06-20T19:32:55.554Z,10.20
2019-06-20T19:35:25.062Z,10.27
2019-06-20T19:37:54.579Z,10.00
2019-06-20T19:40:27.053Z,11.13
2019-06-20T19:42:56.513Z,11.00
2019-06-20T19:45:26.171Z,11.33
2019-06-20T19:47:55.685Z,9.80
2019-06-20T19:50:25.280Z,11.63
2019-06-20T19:52:54.774Z,11.10
2019-06-20T19:55:24.547Z,10.70
2019-06-20T19:57:54.028Z,11.73
2019-06-20T20:00:23.595Z,10.83
2019-06-20T20:02:53.377Z,12.00
2019-06-20T20:05:22.914Z,12.10
2019-06-20T20:07:52.400Z,11.23
2019-06-20T20:10:32.990Z,11.10
2019-06-20T20:13:02.477Z,11.50
2019-06-20T20:15:31.944Z,12.50
2019-06-20T20:18:01.473Z,13.87
2019-06-20T20:20:30.977Z,10.80
2019-06-20T20:23:00.443Z,11.13
2019-06-20T20:25:29.919Z,10.50
2019-06-20T20:27:59.368Z,10.40
2019-06-20T20:30:28.970Z,9.60
2019-06-20T20:33:01.874Z,9.17
2019-06-20T20:35:35.325Z,9.33
2019-06-20T20:38:00.883Z,9.23
2019-06-20T20:40:30.359Z,9.37
2019-06-20T20:42:59.870Z,10.40
2019-06-20T20:45:29.339Z,10.10
2019-06-20T20:47:58.855Z,9.20
2019-06-20T20:50:28.348Z,9.37
2019-06-20T20:52:57.826Z,9.50
2019-06-20T20:55:27.327Z,9.57
2019-06-20T20:57:56.783Z,9.97
2019-06-20T21:00:27.264Z,9.90
2019-06-20T21:02:57.075Z,10.50
2019-06-20T21:05:26.525Z,9.87
2019-06-20T21:07:56.021Z,11.23
2019-06-20T21:10:25.522Z,10.70
2019-06-20T21:12:55.020Z,10.23
2019-06-20T21:15:25.478Z,10.77
2019-06-20T21:17:55.806Z,10.97
2019-06-20T21:20:25.434Z,10.53
2019-06-20T21:22:54.912Z,10.57
2019-06-20T21:25:24.500Z,11.47
2019-06-20T21:27:53.970Z,13.30
2019-06-20T21:30:23.544Z,12.50
2019-06-20T21:32:53.020Z,11.20
2019-06-20T21:35:22.560Z,11.37
2019-06-20T21:37:52.074Z,10.33
2019-06-20T21:40:21.594Z,12.13
2019-06-20T21:42:51.086Z,12.33
2019-06-20T21:45:20.759Z,11.07
2019-06-20T21:47:50.258Z,12.47
2019-06-20T21:50:20.831Z,10.40
2019-06-20T21:52:50.306Z,11.53
2019-06-20T21:55:19.768Z,13.37
2019-06-20T21:57:49.241Z,12.43
2019-06-20T22:00:25.432Z,10.60
2019-06-20T22:02:54.946Z,10.47
2019-06-20T22:05:24.414Z,12.73
2019-06-20T22:07:53.890Z,11.30
2019-06-20T22:10:24.074Z,11.77
2019-06-20T22:12:53.731Z,10.90
2019-06-20T22:15:23.208Z,10.50
2019-06-20T22:17:52.711Z,11.67
2019-06-20T22:20:22.377Z,10.17
2019-06-20T22:22:51.835Z,9.90
2019-06-20T22:25:22.143Z,12.77
2019-06-20T22:27:51.586Z,13.63
2019-06-20T22:30:47.259Z,15.03
2019-06-20T22:33:16.753Z,15.03
2019-06-20T22:35:46.375Z,15.70
2019-06-20T22:38:15.872Z,14.23
2019-06-20T22:40:45.517Z,13.77
2019-06-20T22:43:15.024Z,14.40
2019-06-20T22:45:44.563Z,15.37
2019-06-20T22:48:14.045Z,15.10
2019-06-20T22:50:43.759Z,13.17
2019-06-20T22:53:13.254Z,12.90
2019-06-20T22:55:42.750Z,13.27
2019-06-20T22:58:12.263Z,12.57
2019-06-20T23:00:41.757Z,13.20
2019-06-20T23:03:11.201Z,13.60
2019-06-20T23:05:40.671Z,13.03
2019-06-20T23:08:10.136Z,12.50
2019-06-20T23:10:39.587Z,13.27
2019-06-20T23:13:09.116Z,12.60
2019-06-20T23:15:38.612Z,12.27
2019-06-20T23:18:08.057Z,12.80
2019-06-20T23:20:37.549Z,13.90
2019-06-20T23:23:07.022Z,13.90
2019-06-20T23:25:38.136Z,12.83
2019-06-20T23:28:07.610Z,12.90
2019-06-20T23:30:37.091Z,12.10
2019-06-20T23:33:06.548Z,12.30
2019-06-20T23:35:36.398Z,12.33
2019-06-20T23:38:05.883Z,13.20
2019-06-20T23:40:35.330Z,13.67
2019-06-20T23:43:05.006Z,12.67
2019-06-20T23:45:34.515Z,11.63
2019-06-20T23:48:04.024Z,12.90
2019-06-20T23:50:33.457Z,12.93
2019-06-20T23:53:11.859Z,12.07
2019-06-20T23:55:41.342Z,12.50
2019-06-20T23:58:10.815Z,12.77
